Time;durP1;ratioP1;P1;durP2;ratioP2;P2;SDS_P1;SDS_P2;PMS_P1;PMS_P2;Temp;Humidity;BMP_temperature;BMP_pressure;BME280_temperature;BME280_humidity;BME280_pressure;Samples;Min_cycle;Max_cycle;Signal;HPM_P1;HPM_P2
2021/03/03 00:01:07;;;;;;;;;;;22.40;35.30;;;;;;1513569;77;636;-58
2021/03/03 00:03:09;;;;;;;;;;;22.30;35.30;;;;;;1499719;77;740;-58
2021/03/03 00:05:12;;;;;;;;;;;22.30;35.40;;;;;;1495270;77;769;-58
2021/03/03 00:07:14;;;;;;;;;;;22.40;35.30;;;;;;1495481;77;714;-57
2021/03/03 00:09:16;;;;;;;;;;;22.40;35.20;;;;;;1485679;77;1186;-59
2021/03/03 00:11:18;;;;;;;;;;;22.40;35.10;;;;;;1504567;77;722;-59
2021/03/03 00:13:20;;;;;;;;;;;22.40;35.20;;;;;;1493088;77;736;-60
2021/03/03 00:15:22;;;;;;;;;;;22.20;35.20;;;;;;1505107;77;1942;-58
2021/03/03 00:17:23;;;;;;;;;;;22.20;35.40;;;;;;1504952;77;791;-59
2021/03/03 00:19:25;;;;;;;;;;;22.10;35.40;;;;;;1489777;77;1152;-59
2021/03/03 00:21:27;;;;;;;;;;;22.10;35.50;;;;;;1498475;77;754;-60
2021/03/03 00:23:29;;;;;;;;;;;22.10;35.50;;;;;;1501839;77;782;-60
2021/03/03 00:25:31;;;;;;;;;;;22.20;35.50;;;;;;1500607;77;735;-59
2021/03/03 00:27:33;;;;;;;;;;;22.30;35.50;;;;;;1499979;77;841;-58
2021/03/03 00:29:35;;;;;;;;;;;22.40;35.40;;;;;;1496968;77;1241;-58
2021/03/03 00:31:36;;;;;;;;;;;22.40;35.20;;;;;;1502728;77;814;-60
2021/03/03 00:33:38;;;;;;;;;;;22.40;35.10;;;;;;1498829;77;753;-60
2021/03/03 00:35:40;;;;;;;;;;;22.40;35.20;;;;;;1510077;77;1938;-59
2021/03/03 00:37:42;;;;;;;;;;;22.40;35.10;;;;;;1516243;77;791;-58
2021/03/03 00:39:44;;;;;;;;;;;22.40;35.10;;;;;;1503800;77;1159;-60
2021/03/03 00:41:46;;;;;;;;;;;22.40;35.20;;;;;;1505304;77;667;-58
2021/03/03 00:43:48;;;;;;;;;;;22.30;35.30;;;;;;1505631;77;769;-59
2021/03/03 00:45:50;;;;;;;;;;;22.40;35.30;;;;;;1501498;77;976;-60
2021/03/03 00:47:51;;;;;;;;;;;22.40;35.40;;;;;;1507242;77;697;-60
2021/03/03 00:49:53;;;;;;;;;;;22.40;35.30;;;;;;1499792;77;1155;-58
2021/03/03 00:51:55;;;;;;;;;;;22.40;35.20;;;;;;1505341;77;801;-59
2021/03/03 00:53:57;;;;;;;;;;;22.40;35.20;;;;;;1501793;77;919;-60
2021/03/03 00:55:59;;;;;;;;;;;22.50;35.20;;;;;;1497621;77;1941;-59
2021/03/03 00:58:01;;;;;;;;;;;22.40;35.20;;;;;;1500596;77;758;-58
2021/03/03 01:00:04;;;;;;;;;;;22.50;35.40;;;;;;1503286;77;1151;-60
2021/03/03 01:02:06;;;;;;;;;;;22.50;35.30;;;;;;1501139;77;741;-60
2021/03/03 01:04:07;;;;;;;;;;;22.50;35.30;;;;;;1501944;77;650;-57
2021/03/03 01:06:09;;;;;;;;;;;22.40;35.10;;;;;;1505849;77;714;-59
2021/03/03 01:08:11;;;;;;;;;;;22.50;35.30;;;;;;1505192;77;711;-57
2021/03/03 01:10:13;;;;;;;;;;;22.40;35.40;;;;;;1500927;77;1204;-59
2021/03/03 01:12:15;;;;;;;;;;;22.40;35.50;;;;;;1506645;77;768;-58
2021/03/03 01:14:17;;;;;;;;;;;22.40;35.40;;;;;;1502301;77;738;-58
2021/03/03 01:16:19;;;;;;;;;;;22.40;35.30;;;;;;1504749;77;1977;-59
2021/03/03 01:18:21;;;;;;;;;;;22.40;35.30;;;;;;1503916;77;881;-58
2021/03/03 01:20:23;;;;;;;;;;;22.40;35.10;;;;;;1503515;77;1130;-59
2021/03/03 01:22:25;;;;;;;;;;;22.50;35.20;;;;;;1505845;77;780;-59
2021/03/03 01:24:26;;;;;;;;;;;22.40;35.20;;;;;;1505536;77;622;-59
2021/03/03 01:26:28;;;;;;;;;;;22.40;35.00;;;;;;1504048;77;710;-59
2021/03/03 01:28:30;;;;;;;;;;;22.40;35.20;;;;;;1500422;77;782;-58
2021/03/03 01:30:32;;;;;;;;;;;22.30;35.10;;;;;;1500518;77;1138;-59
2021/03/03 01:32:34;;;;;;;;;;;22.40;35.00;;;;;;1500516;77;739;-57
2021/03/03 01:34:36;;;;;;;;;;;22.40;35.00;;;;;;1503186;77;726;-58
2021/03/03 01:36:38;;;;;;;;;;;22.40;34.90;;;;;;1499692;77;1957;-60
2021/03/03 01:38:40;;;;;;;;;;;22.50;35.00;;;;;;1500351;77;707;-60
2021/03/03 01:40:41;;;;;;;;;;;22.50;35.00;;;;;;1506554;77;1102;-58
2021/03/03 01:42:43;;;;;;;;;;;22.50;35.00;;;;;;1508361;77;675;-57
2021/03/03 01:44:45;;;;;;;;;;;22.60;34.80;;;;;;1510155;77;773;-56
2021/03/03 01:46:47;;;;;;;;;;;22.60;34.70;;;;;;1503828;77;729;-59
2021/03/03 01:48:49;;;;;;;;;;;22.60;34.70;;;;;;1504882;77;776;-60
2021/03/03 01:50:51;;;;;;;;;;;22.60;34.70;;;;;;1501460;77;768;-59
2021/03/03 01:52:53;;;;;;;;;;;22.60;34.60;;;;;;1500653;77;767;-58
2021/03/03 01:54:55;;;;;;;;;;;22.60;34.60;;;;;;1500254;77;773;-59
2021/03/03 01:56:57;;;;;;;;;;;22.60;34.60;;;;;;1498475;77;1945;-57
2021/03/03 01:58:58;;;;;;;;;;;22.60;34.60;;;;;;1503498;77;1139;-59
2021/03/03 02:01:00;;;;;;;;;;;22.60;34.70;;;;;;1502027;77;727;-57
2021/03/03 02:03:02;;;;;;;;;;;22.50;34.90;;;;;;1499377;77;719;-57
2021/03/03 02:05:05;;;;;;;;;;;22.50;35.10;;;;;;1501014;78;695;-59
2021/03/03 02:07:11;;;;;;;;;;;22.30;35.20;;;;;;1498815;77;918;-58
2021/03/03 02:09:14;;;;;;;;;;;22.30;35.20;;;;;;1494501;77;2075;-57
2021/03/03 02:11:30;;;;;;;;;;;22.30;35.30;;;;;;1498826;77;727;-59
2021/03/03 02:13:32;;;;;;;;;;;22.30;35.50;;;;;;1499274;77;755;-59
2021/03/03 02:15:34;;;;;;;;;;;22.30;35.50;;;;;;1500753;77;810;-59
2021/03/03 02:17:36;;;;;;;;;;;22.30;35.50;;;;;;1500026;77;1933;-58
2021/03/03 02:19:38;;;;;;;;;;;22.30;35.60;;;;;;1502273;77;1164;-58
2021/03/03 02:21:42;;;;;;;;;;;22.30;35.50;;;;;;1506440;77;750;-59
2021/03/03 02:23:51;;;;;;;;;;;22.40;35.40;;;;;;1507820;77;764;-59
2021/03/03 02:25:53;;;;;;;;;;;22.40;35.20;;;;;;1504056;77;665;-58
2021/03/03 02:27:55;;;;;;;;;;;22.40;35.20;;;;;;1505579;77;731;-59
2021/03/03 02:29:59;;;;;;;;;;;22.40;35.10;;;;;;1504200;77;1167;-58
2021/03/03 02:32:01;;;;;;;;;;;22.50;35.20;;;;;;1506829;77;740;-59
2021/03/03 02:34:03;;;;;;;;;;;22.50;35.10;;;;;;1502086;77;767;-59
2021/03/03 02:36:05;;;;;;;;;;;22.40;35.10;;;;;;1507672;77;1939;-59
2021/03/03 02:38:07;;;;;;;;;;;22.40;35.20;;;;;;1507558;77;734;-59
2021/03/03 02:40:09;;;;;;;;;;;22.30;35.40;;;;;;1501658;77;1171;-58
2021/03/03 02:42:12;;;;;;;;;;;22.30;35.60;;;;;;1504088;77;696;-59
2021/03/03 02:44:14;;;;;;;;;;;22.30;35.70;;;;;;1502791;77;680;-59
2021/03/03 02:46:15;;;;;;;;;;;22.30;35.50;;;;;;1505128;77;698;-57
2021/03/03 02:48:17;;;;;;;;;;;22.30;35.70;;;;;;1505078;77;676;-58
2021/03/03 02:50:19;;;;;;;;;;;22.30;35.70;;;;;;1505050;77;1093;-57
2021/03/03 02:52:22;;;;;;;;;;;22.30;35.50;;;;;;1505260;77;751;-57
2021/03/03 02:54:24;;;;;;;;;;;22.30;35.50;;;;;;1502686;77;787;-58
2021/03/03 02:56:27;;;;;;;;;;;22.40;35.40;;;;;;1503724;77;1945;-59
2021/03/03 02:58:29;;;;;;;;;;;22.40;35.40;;;;;;1510817;77;727;-57
2021/03/03 03:00:37;;;;;;;;;;;22.40;35.30;;;;;;1505366;77;1148;-58
2021/03/03 03:02:39;;;;;;;;;;;22.50;35.30;;;;;;1505531;77;638;-59
2021/03/03 03:04:42;;;;;;;;;;;22.50;35.10;;;;;;1506059;77;809;-57
2021/03/03 03:06:44;;;;;;;;;;;22.50;35.10;;;;;;1505025;77;740;-58
2021/03/03 03:08:47;;;;;;;;;;;22.50;35.00;;;;;;1505082;77;721;-56
2021/03/03 03:10:48;;;;;;;;;;;22.50;35.10;;;;;;1505479;77;1163;-58
2021/03/03 03:12:52;;;;;;;;;;;22.50;35.10;;;;;;1509004;77;736;-59
2021/03/03 03:14:54;;;;;;;;;;;22.60;35.00;;;;;;1502575;77;1800;-58
2021/03/03 03:16:56;;;;;;;;;;;22.50;35.00;;;;;;1505452;77;1949;-59
2021/03/03 03:18:58;;;;;;;;;;;22.50;35.10;;;;;;1505038;77;1169;-58
2021/03/03 03:21:00;;;;;;;;;;;22.60;34.90;;;;;;1501606;77;729;-57
2021/03/03 03:23:03;;;;;;;;;;;22.60;35.00;;;;;;1501288;77;899;-58
2021/03/03 03:25:06;;;;;;;;;;;22.70;35.00;;;;;;1505083;77;1203;-59
2021/03/03 03:27:08;;;;;;;;;;;22.60;35.10;;;;;;1505338;77;659;-58
2021/03/03 03:29:10;;;;;;;;;;;22.60;35.30;;;;;;1506327;77;1137;-58
2021/03/03 03:31:11;;;;;;;;;;;22.50;35.50;;;;;;1505232;77;747;-57
2021/03/03 03:33:13;;;;;;;;;;;22.50;35.60;;;;;;1505810;77;790;-59
2021/03/03 03:35:15;;;;;;;;;;;22.60;35.70;;;;;;1505111;77;784;-59
2021/03/03 03:37:17;;;;;;;;;;;22.50;35.60;;;;;;1505119;77;1929;-58
2021/03/03 03:39:19;;;;;;;;;;;22.50;35.60;;;;;;1505065;77;1177;-57
2021/03/03 03:41:21;;;;;;;;;;;22.50;35.80;;;;;;1500580;77;721;-59
2021/03/03 03:43:23;;;;;;;;;;;22.60;35.80;;;;;;1504028;77;793;-59
2021/03/03 03:45:25;;;;;;;;;;;22.70;35.90;;;;;;1500703;77;776;-57
2021/03/03 03:47:27;;;;;;;;;;;22.70;36.00;;;;;;1501674;77;759;-57
2021/03/03 03:49:29;;;;;;;;;;;22.60;35.90;;;;;;1495965;77;1122;-56
2021/03/03 03:51:30;;;;;;;;;;;22.60;36.00;;;;;;1502996;77;744;-57
2021/03/03 03:53:32;;;;;;;;;;;22.60;36.10;;;;;;1505324;77;826;-58
2021/03/03 03:55:35;;;;;;;;;;;22.60;36.30;;;;;;1502923;77;763;-59
2021/03/03 03:57:52;;;;;;;;;;;22.50;36.40;;;;;;1504294;77;1911;-60
2021/03/03 03:59:54;;;;;;;;;;;22.50;36.60;;;;;;1498904;77;1184;-60
2021/03/03 04:01:56;;;;;;;;;;;22.50;36.70;;;;;;1497796;77;720;-59
2021/03/03 04:03:58;;;;;;;;;;;22.50;36.80;;;;;;1505304;77;711;-59
2021/03/03 04:06:00;;;;;;;;;;;22.50;36.70;;;;;;1501831;77;736;-60
2021/03/03 04:08:01;;;;;;;;;;;22.40;36.70;;;;;;1501116;77;717;-60
2021/03/03 04:10:04;;;;;;;;;;;22.50;36.80;;;;;;1500317;77;1165;-58
2021/03/03 04:12:06;;;;;;;;;;;22.40;36.60;;;;;;1502589;77;1092;-58
2021/03/03 04:14:10;;;;;;;;;;;22.40;36.70;;;;;;1503034;77;719;-58
2021/03/03 04:16:11;;;;;;;;;;;22.40;36.60;;;;;;1497377;77;781;-60
2021/03/03 04:18:13;;;;;;;;;;;22.40;36.70;;;;;;1506132;77;1948;-60
2021/03/03 04:20:15;;;;;;;;;;;22.40;36.60;;;;;;1507992;77;1185;-58
2021/03/03 04:22:17;;;;;;;;;;;22.40;36.50;;;;;;1510705;77;933;-60
2021/03/03 04:24:19;;;;;;;;;;;22.50;36.50;;;;;;1514825;77;757;-59
2021/03/03 04:26:21;;;;;;;;;;;22.50;36.50;;;;;;1515848;77;716;-58
2021/03/03 04:28:23;;;;;;;;;;;22.50;36.50;;;;;;1501454;77;777;-60
2021/03/03 04:30:25;;;;;;;;;;;22.40;36.40;;;;;;1496727;77;1129;-60
2021/03/03 04:32:27;;;;;;;;;;;22.40;36.40;;;;;;1496127;77;769;-58
2021/03/03 04:34:28;;;;;;;;;;;22.50;36.40;;;;;;1505411;77;772;-59
2021/03/03 04:36:30;;;;;;;;;;;22.50;36.50;;;;;;1502842;77;601;-60
2021/03/03 04:38:32;;;;;;;;;;;22.40;36.50;;;;;;1504285;77;1953;-60
2021/03/03 04:40:34;;;;;;;;;;;22.50;36.40;;;;;;1500500;77;1153;-59
2021/03/03 04:42:36;;;;;;;;;;;22.50;36.70;;;;;;1498120;77;756;-59
2021/03/03 04:44:38;;;;;;;;;;;22.60;36.40;;;;;;1493747;77;782;-59
2021/03/03 04:46:40;;;;;;;;;;;22.60;36.30;;;;;;1503346;77;755;-59
2021/03/03 04:48:42;;;;;;;;;;;22.50;36.30;;;;;;1507084;77;736;-61
2021/03/03 04:50:44;;;;;;;;;;;22.50;36.20;;;;;;1504024;77;1145;-59
2021/03/03 04:52:46;;;;;;;;;;;22.60;36.30;;;;;;1503032;77;790;-59
2021/03/03 04:54:48;;;;;;;;;;;22.60;36.20;;;;;;1503423;77;896;-60
2021/03/03 04:56:49;;;;;;;;;;;22.50;36.20;;;;;;1503973;77;1920;-59
2021/03/03 04:58:51;;;;;;;;;;;22.50;36.10;;;;;;1504225;77;1126;-59
2021/03/03 05:00:53;;;;;;;;;;;22.60;36.10;;;;;;1505440;77;728;-59
2021/03/03 05:02:55;;;;;;;;;;;22.50;36.10;;;;;;1503685;77;735;-59
2021/03/03 05:04:57;;;;;;;;;;;22.50;36.20;;;;;;1504482;77;726;-60
2021/03/03 05:06:59;;;;;;;;;;;22.50;36.00;;;;;;1502593;77;783;-59
2021/03/03 05:09:01;;;;;;;;;;;22.50;36.00;;;;;;1500649;77;1131;-59
2021/03/03 05:11:03;;;;;;;;;;;22.50;36.00;;;;;;1502958;77;776;-59
2021/03/03 05:13:05;;;;;;;;;;;22.60;36.00;;;;;;1503232;77;721;-60
2021/03/03 05:15:07;;;;;;;;;;;22.60;36.00;;;;;;1502831;77;762;-58
2021/03/03 05:17:09;;;;;;;;;;;22.50;36.00;;;;;;1503530;77;1941;-59
2021/03/03 05:19:11;;;;;;;;;;;22.50;35.90;;;;;;1501064;77;1154;-58
2021/03/03 05:21:13;;;;;;;;;;;22.60;35.80;;;;;;1498341;77;722;-60
2021/03/03 05:23:15;;;;;;;;;;;22.50;35.80;;;;;;1504126;77;675;-59
2021/03/03 05:25:16;;;;;;;;;;;22.50;35.80;;;;;;1500817;77;732;-60
2021/03/03 05:27:18;;;;;;;;;;;22.60;35.70;;;;;;1503700;77;778;-60
2021/03/03 05:29:20;;;;;;;;;;;22.50;35.70;;;;;;1499331;77;1120;-60
2021/03/03 05:31:22;;;;;;;;;;;22.50;35.80;;;;;;1499996;77;830;-61
2021/03/03 05:33:28;;;;;;;;;;;22.60;35.70;;;;;;1500878;77;731;-60
2021/03/03 05:35:30;;;;;;;;;;;22.60;35.70;;;;;;1502128;77;793;-60
2021/03/03 05:37:31;;;;;;;;;;;22.60;35.90;;;;;;1500917;77;1945;-58
2021/03/03 05:39:33;;;;;;;;;;;22.60;35.90;;;;;;1503034;77;1150;-59
2021/03/03 05:41:35;;;;;;;;;;;22.60;35.80;;;;;;1501653;77;726;-59
2021/03/03 05:43:38;;;;;;;;;;;22.60;35.80;;;;;;1506490;77;778;-58
2021/03/03 05:45:41;;;;;;;;;;;22.60;35.90;;;;;;1499650;77;739;-60
2021/03/03 05:47:43;;;;;;;;;;;22.60;35.90;;;;;;1497501;77;738;-60
2021/03/03 05:49:45;;;;;;;;;;;22.60;35.80;;;;;;1506109;77;1203;-60
2021/03/03 05:51:47;;;;;;;;;;;22.70;35.90;;;;;;1505416;77;778;-60
2021/03/03 05:53:48;;;;;;;;;;;22.70;35.80;;;;;;1501389;77;741;-60
2021/03/03 05:55:52;;;;;;;;;;;22.70;35.70;;;;;;1506803;77;724;-60
2021/03/03 05:57:54;;;;;;;;;;;22.70;35.70;;;;;;1496132;77;1926;-59
2021/03/03 05:59:56;;;;;;;;;;;22.70;35.70;;;;;;1490992;77;1165;-59
2021/03/03 06:01:58;;;;;;;;;;;22.80;35.70;;;;;;1494277;77;787;-61
2021/03/03 06:04:00;;;;;;;;;;;22.70;35.70;;;;;;1502943;77;943;-60
2021/03/03 06:06:02;;;;;;;;;;;22.70;35.80;;;;;;1501919;77;714;-58
2021/03/03 06:08:04;;;;;;;;;;;22.70;36.00;;;;;;1506788;77;779;-59
2021/03/03 06:10:06;;;;;;;;;;;22.70;36.00;;;;;;1476069;78;1114;-58
2021/03/03 06:12:08;;;;;;;;;;;22.70;35.80;;;;;;1506432;77;613;-59
2021/03/03 06:14:10;;;;;;;;;;;22.80;35.80;;;;;;1483882;78;865;-59
2021/03/03 06:16:12;;;;;;;;;;;22.70;35.70;;;;;;1480280;78;638;-59
2021/03/03 06:18:14;;;;;;;;;;;22.80;35.70;;;;;;1481297;78;1929;-60
2021/03/03 06:20:18;;;;;;;;;;;22.70;35.60;;;;;;1500036;77;1159;-59
2021/03/03 06:22:24;;;;;;;;;;;22.80;35.60;;;;;;1503620;77;724;-59
2021/03/03 06:24:27;;;;;;;;;;;22.70;35.60;;;;;;1500905;77;702;-59
2021/03/03 06:26:29;;;;;;;;;;;22.80;36.00;;;;;;1546793;75;1853;-59
2021/03/03 06:28:35;;;;;;;;;;;22.80;36.00;;;;;;1545652;75;723;-60
2021/03/03 06:30:38;;;;;;;;;;;22.80;36.00;;;;;;1543783;75;1137;-58
2021/03/03 06:32:58;;;;;;;;;;;22.80;35.90;;;;;;1559218;75;748;-58
2021/03/03 06:35:00;;;;;;;;;;;22.80;35.80;;;;;;1547548;75;811;-60
2021/03/03 06:37:02;;;;;;;;;;;22.90;35.70;;;;;;1541409;75;750;-59
2021/03/03 06:39:24;;;;;;;;;;;22.90;35.70;;;;;;1542875;75;1923;-61
2021/03/03 06:41:27;;;;;;;;;;;22.90;35.60;;;;;;1549802;75;773;-56
2021/03/03 06:43:29;;;;;;;;;;;22.90;35.60;;;;;;1538656;75;1910;-59
2021/03/03 06:45:32;;;;;;;;;;;22.90;35.30;;;;;;1547297;75;683;-60
2021/03/03 06:47:34;;;;;;;;;;;22.90;35.20;;;;;;1543759;75;809;-57
2021/03/03 06:49:36;;;;;;;;;;;22.90;35.00;;;;;;1506044;76;1179;-58
2021/03/03 06:51:38;;;;;;;;;;;22.90;35.10;;;;;;1488938;77;764;-60
2021/03/03 06:53:40;;;;;;;;;;;22.90;35.20;;;;;;1510922;76;702;-59
2021/03/03 06:55:48;;;;;;;;;;;23.10;35.30;;;;;;1510227;77;729;-59
2021/03/03 06:57:50;;;;;;;;;;;23.10;35.00;;;;;;1510641;77;1938;-59
2021/03/03 06:59:52;;;;;;;;;;;23.40;35.10;;;;;;1511025;77;1158;-57
2021/03/03 07:01:58;;;;;;;;;;;23.40;34.70;;;;;;1506632;76;818;-60
2021/03/03 07:04:00;;;;;;;;;;;23.50;34.20;;;;;;1514263;76;818;-58
2021/03/03 07:06:02;;;;;;;;;;;23.60;34.10;;;;;;1504245;77;714;-59
2021/03/03 07:08:05;;;;;;;;;;;23.60;33.40;;;;;;1496996;77;748;-59
2021/03/03 07:10:09;;;;;;;;;;;23.70;33.20;;;;;;1508466;76;1106;-59
2021/03/03 07:12:11;;;;;;;;;;;23.70;32.90;;;;;;1515024;77;702;-59
2021/03/03 07:14:17;;;;;;;;;;;23.80;32.70;;;;;;1494930;77;711;-58
2021/03/03 07:16:18;;;;;;;;;;;23.80;32.70;;;;;;1501273;77;685;-59
2021/03/03 07:18:33;;;;;;;;;;;23.80;32.00;;;;;;1514528;76;1948;-57
2021/03/03 07:20:36;;;;;;;;;;;23.70;30.80;;;;;;1507911;77;1345;-59
2021/03/03 07:22:41;;;;;;;;;;;23.60;29.90;;;;;;1472654;78;1107;-57
2021/03/03 07:24:43;;;;;;;;;;;23.40;29.30;;;;;;1501037;77;724;-57
2021/03/03 07:26:45;;;;;;;;;;;23.40;29.20;;;;;;1488671;77;781;-59
2021/03/03 07:28:47;;;;;;;;;;;23.20;28.80;;;;;;1496663;77;724;-57
2021/03/03 07:30:48;;;;;;;;;;;23.10;28.40;;;;;;1501811;77;1134;-58
2021/03/03 07:32:50;;;;;;;;;;;23.10;28.20;;;;;;1507333;77;763;-55
2021/03/03 07:34:53;;;;;;;;;;;23.00;28.40;;;;;;1501026;77;742;-57
2021/03/03 07:36:55;;;;;;;;;;;23.00;28.10;;;;;;1504119;77;906;-56
2021/03/03 07:38:57;;;;;;;;;;;22.90;27.40;;;;;;1502163;77;1898;-58
2021/03/03 07:41:02;;;;;;;;;;;22.90;27.60;;;;;;1495378;77;748;-58
2021/03/03 07:43:04;;;;;;;;;;;22.90;27.90;;;;;;1504283;77;673;-60
2021/03/03 07:45:08;;;;;;;;;;;22.80;26.90;;;;;;1494139;77;666;-60
2021/03/03 07:47:10;;;;;;;;;;;22.80;27.30;;;;;;1496168;78;1892;-60
2021/03/03 07:49:12;;;;;;;;;;;22.70;26.80;;;;;;1504043;77;1198;-57
2021/03/03 07:51:14;;;;;;;;;;;22.70;26.80;;;;;;1505367;77;730;-59
2021/03/03 07:53:16;;;;;;;;;;;22.70;26.60;;;;;;1496719;77;658;-58
2021/03/03 07:55:18;;;;;;;;;;;22.60;26.50;;;;;;1512222;77;838;-57
2021/03/03 07:57:20;;;;;;;;;;;22.60;26.50;;;;;;1501360;77;741;-58
2021/03/03 07:59:22;;;;;;;;;;;22.60;26.60;;;;;;1496886;77;1945;-58
2021/03/03 08:01:24;;;;;;;;;;;22.60;26.50;;;;;;1498612;77;737;-57
2021/03/03 08:03:44;;;;;;;;;;;22.60;26.70;;;;;;1500866;77;768;-60
2021/03/03 08:05:47;;;;;;;;;;;22.60;26.90;;;;;;1503714;77;826;-60
2021/03/03 08:07:50;;;;;;;;;;;22.50;26.60;;;;;;1508618;77;785;-58
2021/03/03 08:10:09;;;;;;;;;;;22.50;26.70;;;;;;1504059;77;1571;-58
2021/03/03 08:12:11;;;;;;;;;;;22.50;26.40;;;;;;1500355;77;715;-59
2021/03/03 08:14:32;;;;;;;;;;;22.50;26.60;;;;;;1504880;77;794;-57
2021/03/03 08:16:36;;;;;;;;;;;22.50;26.40;;;;;;1500164;77;725;-60
2021/03/03 08:18:38;;;;;;;;;;;22.40;26.50;;;;;;1500803;77;1941;-58
2021/03/03 08:20:40;;;;;;;;;;;22.40;26.30;;;;;;1492209;77;1069;-58
2021/03/03 08:22:52;;;;;;;;;;;22.40;26.30;;;;;;1493484;77;806;-59
2021/03/03 08:24:53;;;;;;;;;;;22.40;26.40;;;;;;1489677;77;786;-58
2021/03/03 08:26:55;;;;;;;;;;;22.40;26.80;;;;;;1494561;77;735;-58
2021/03/03 08:29:16;;;;;;;;;;;22.40;26.50;;;;;;1503636;77;1153;-60
2021/03/03 08:31:24;;;;;;;;;;;22.30;26.40;;;;;;1495817;77;708;-58
2021/03/03 08:33:29;;;;;;;;;;;22.30;26.70;;;;;;1494653;77;1601;-57
2021/03/03 08:35:38;;;;;;;;;;;22.30;26.50;;;;;;1497489;77;778;-59
2021/03/03 08:37:39;;;;;;;;;;;22.30;26.50;;;;;;1509637;77;744;-59
2021/03/03 08:39:41;;;;;;;;;;;22.40;26.50;;;;;;1501301;77;1942;-58
2021/03/03 08:41:43;;;;;;;;;;;22.30;25.60;;;;;;1469860;79;1187;-59
2021/03/03 08:43:45;;;;;;;;;;;22.40;26.10;;;;;;1506121;77;755;-57
2021/03/03 08:45:47;;;;;;;;;;;22.30;26.30;;;;;;1503484;77;792;-59
2021/03/03 08:47:53;;;;;;;;;;;22.40;26.30;;;;;;1502196;77;709;-57
2021/03/03 08:49:55;;;;;;;;;;;22.30;26.30;;;;;;1499960;77;1131;-59
2021/03/03 08:52:08;;;;;;;;;;;22.40;26.50;;;;;;1500907;77;778;-58
2021/03/03 08:54:16;;;;;;;;;;;22.30;26.40;;;;;;1498736;77;1805;-59
2021/03/03 08:56:35;;;;;;;;;;;22.30;25.80;;;;;;1499925;77;772;-57
2021/03/03 08:58:38;;;;;;;;;;;22.30;26.50;;;;;;1503306;78;1923;-59
2021/03/03 09:00:47;;;;;;;;;;;22.30;25.80;;;;;;1500763;77;1099;-58
2021/03/03 09:02:49;;;;;;;;;;;22.30;25.80;;;;;;1499937;77;739;-59
2021/03/03 09:04:51;;;;;;;;;;;22.30;26.20;;;;;;1501641;78;755;-59
2021/03/03 09:06:55;;;;;;;;;;;22.30;26.30;;;;;;1498403;77;719;-58
2021/03/03 09:09:01;;;;;;;;;;;22.30;26.30;;;;;;1501175;77;1147;-59
2021/03/03 09:11:03;;;;;;;;;;;22.30;26.00;;;;;;1499335;77;707;-58
2021/03/03 09:13:05;;;;;;;;;;;22.30;26.00;;;;;;1504730;77;1297;-59
2021/03/03 09:15:07;;;;;;;;;;;22.30;26.20;;;;;;1501779;77;965;-60
2021/03/03 09:17:10;;;;;;;;;;;22.40;26.20;;;;;;1495241;77;953;-58
2021/03/03 09:19:12;;;;;;;;;;;22.30;25.70;;;;;;1500714;77;1945;-59
2021/03/03 09:21:14;;;;;;;;;;;22.30;26.00;;;;;;1501458;77;700;-56
2021/03/03 09:23:17;;;;;;;;;;;22.40;25.70;;;;;;1502591;77;760;-55
2021/03/03 09:25:24;;;;;;;;;;;22.40;25.80;;;;;;1499560;77;1784;-59
2021/03/03 09:27:26;;;;;;;;;;;22.40;25.60;;;;;;1502358;77;706;-57
2021/03/03 09:29:31;;;;;;;;;;;22.30;25.80;;;;;;1504108;77;1174;-60
2021/03/03 09:31:34;;;;;;;;;;;22.40;25.60;;;;;;1503932;77;786;-59
2021/03/03 09:33:36;;;;;;;;;;;22.40;25.60;;;;;;1504502;77;703;-60
2021/03/03 09:35:38;;;;;;;;;;;22.40;25.70;;;;;;1501861;78;717;-59
2021/03/03 09:37:40;;;;;;;;;;;22.40;25.60;;;;;;1504806;77;749;-60
2021/03/03 09:39:42;;;;;;;;;;;22.40;25.50;;;;;;1506849;77;1951;-57
2021/03/03 09:41:46;;;;;;;;;;;22.40;25.40;;;;;;1505274;77;665;-59
2021/03/03 09:43:52;;;;;;;;;;;22.40;25.30;;;;;;1500030;77;1859;-57
2021/03/03 09:45:55;;;;;;;;;;;22.40;25.20;;;;;;1499907;77;1867;-59
2021/03/03 09:47:57;;;;;;;;;;;22.30;25.50;;;;;;1505118;77;805;-56
2021/03/03 09:50:00;;;;;;;;;;;22.30;25.20;;;;;;1498829;77;1250;-56
2021/03/03 09:52:02;;;;;;;;;;;22.30;25.30;;;;;;1507961;77;748;-58
2021/03/03 09:54:04;;;;;;;;;;;22.40;25.50;;;;;;1499318;77;705;-59
2021/03/03 09:56:06;;;;;;;;;;;22.40;25.40;;;;;;1507759;77;682;-57
2021/03/03 09:58:08;;;;;;;;;;;22.40;25.10;;;;;;1504912;77;705;-57
2021/03/03 10:00:11;;;;;;;;;;;22.40;25.30;;;;;;1499941;77;1945;-57
2021/03/03 10:02:13;;;;;;;;;;;22.40;25.30;;;;;;1497563;77;731;-59
2021/03/03 10:04:15;;;;;;;;;;;22.40;25.40;;;;;;1495565;77;775;-56
2021/03/03 10:06:17;;;;;;;;;;;22.50;25.00;;;;;;1505435;77;701;-59
2021/03/03 10:08:19;;;;;;;;;;;22.50;25.10;;;;;;1508196;73;217636;-64
2021/03/03 10:10:21;;;;;;;;;;;22.40;25.00;;;;;;1528791;76;724;-64
2021/03/03 10:12:24;;;;;;;;;;;22.50;25.20;;;;;;1528813;76;827;-63
2021/03/03 10:14:25;;;;;;;;;;;22.50;25.30;;;;;;1485943;78;786;-64
2021/03/03 10:16:27;;;;;;;;;;;22.50;25.50;;;;;;1520914;77;715;-63
2021/03/03 10:18:29;;;;;;;;;;;22.50;25.50;;;;;;1472425;79;1145;-63
2021/03/03 10:20:33;;;;;;;;;;;22.50;25.20;;;;;;1526250;76;1936;-64
2021/03/03 10:22:35;;;;;;;;;;;22.50;25.40;;;;;;1540684;76;804;-63
2021/03/03 10:24:37;;;;;;;;;;;22.50;25.20;;;;;;1538658;76;827;-63
2021/03/03 10:26:41;;;;;;;;;;;22.50;25.40;;;;;;1528751;76;752;-64
2021/03/03 10:28:43;;;;;;;;;;;22.50;25.50;;;;;;1533394;76;1936;-65
2021/03/03 10:30:46;;;;;;;;;;;22.50;25.70;;;;;;1527769;76;737;-63
2021/03/03 10:32:48;;;;;;;;;;;22.50;25.40;;;;;;1521154;76;770;-64
2021/03/03 10:34:52;;;;;;;;;;;22.60;25.50;;;;;;1523433;76;735;-65
2021/03/03 10:36:53;;;;;;;;;;;22.50;25.50;;;;;;1521442;76;1117;-64
2021/03/03 10:38:56;;;;;;;;;;;22.50;25.60;;;;;;1541258;76;1930;-64
2021/03/03 10:40:59;;;;;;;;;;;22.50;25.60;;;;;;1534454;76;775;-64
2021/03/03 10:43:02;;;;;;;;;;;22.50;25.70;;;;;;1541788;76;797;-64
2021/03/03 10:45:04;;;;;;;;;;;22.60;25.60;;;;;;1535577;76;1859;-64
2021/03/03 10:47:06;;;;;;;;;;;22.50;25.70;;;;;;1537434;76;1122;-65
2021/03/03 10:49:15;;;;;;;;;;;22.60;25.50;;;;;;1537114;76;768;-63
2021/03/03 10:51:18;;;;;;;;;;;22.50;25.60;;;;;;1544417;76;754;-64
2021/03/03 10:53:20;;;;;;;;;;;22.50;25.50;;;;;;1536975;76;735;-64
2021/03/03 10:55:23;;;;;;;;;;;22.50;25.70;;;;;;1539516;76;733;-65
2021/03/03 10:57:25;;;;;;;;;;;22.50;25.70;;;;;;1539914;76;1145;-63
2021/03/03 10:59:30;;;;;;;;;;;22.50;25.80;;;;;;1529243;76;1907;-64
2021/03/03 11:01:42;;;;;;;;;;;22.50;25.70;;;;;;1535353;76;919;-63
2021/03/03 11:03:51;;;;;;;;;;;22.50;25.50;;;;;;1532709;76;904;-64
2021/03/03 11:05:53;;;;;;;;;;;22.60;25.50;;;;;;1540502;76;743;-63
2021/03/03 11:07:55;;;;;;;;;;;22.50;25.40;;;;;;1534580;76;1138;-63
2021/03/03 11:09:57;;;;;;;;;;;22.60;25.40;;;;;;1529294;76;741;-64
2021/03/03 11:11:59;;;;;;;;;;;22.60;25.20;;;;;;1532574;76;892;-64
2021/03/03 11:14:01;;;;;;;;;;;22.60;25.20;;;;;;1538222;76;756;-63
2021/03/03 11:16:03;;;;;;;;;;;22.50;25.20;;;;;;1524940;76;750;-64
2021/03/03 11:18:05;;;;;;;;;;;22.50;25.20;;;;;;1533069;76;1166;-64
2021/03/03 11:20:08;;;;;;;;;;;22.50;25.10;;;;;;1529200;76;1929;-64
2021/03/03 11:22:09;;;;;;;;;;;22.60;25.20;;;;;;1532464;76;651;-64
2021/03/03 11:24:11;;;;;;;;;;;22.60;25.30;;;;;;1536444;76;791;-65
2021/03/03 11:26:13;;;;;;;;;;;22.60;25.30;;;;;;1531971;76;663;-65
2021/03/03 11:28:15;;;;;;;;;;;22.60;25.30;;;;;;1536708;76;1174;-64
2021/03/03 11:30:17;;;;;;;;;;;22.50;25.40;;;;;;1536283;76;732;-65
2021/03/03 11:32:19;;;;;;;;;;;22.60;25.40;;;;;;1524127;76;757;-66
2021/03/03 11:34:21;;;;;;;;;;;22.50;25.50;;;;;;1528389;76;738;-64
2021/03/03 11:36:23;;;;;;;;;;;22.60;25.50;;;;;;1527340;76;793;-63
2021/03/03 11:38:25;;;;;;;;;;;22.60;25.50;;;;;;1534415;76;1059;-64
2021/03/03 11:40:27;;;;;;;;;;;22.50;25.60;;;;;;1521100;76;1948;-64
2021/03/03 11:42:29;;;;;;;;;;;22.50;25.50;;;;;;1530082;76;754;-64
2021/03/03 11:44:30;;;;;;;;;;;22.50;25.50;;;;;;1524837;76;759;-65
2021/03/03 11:46:33;;;;;;;;;;;22.60;25.50;;;;;;1524714;76;808;-64
2021/03/03 11:48:35;;;;;;;;;;;22.60;25.60;;;;;;1531489;76;1075;-63
2021/03/03 11:50:37;;;;;;;;;;;22.70;25.50;;;;;;1534023;76;798;-64
2021/03/03 11:52:38;;;;;;;;;;;22.70;25.60;;;;;;1535198;76;786;-66
2021/03/03 11:54:40;;;;;;;;;;;22.60;25.60;;;;;;1536936;76;733;-66
2021/03/03 11:56:43;;;;;;;;;;;22.60;25.60;;;;;;1528118;76;1131;-64
2021/03/03 11:58:45;;;;;;;;;;;22.60;25.50;;;;;;1534816;76;824;-64
2021/03/03 12:00:47;;;;;;;;;;;22.60;25.60;;;;;;1520038;76;1914;-66
2021/03/03 12:02:49;;;;;;;;;;;22.60;25.60;;;;;;1534615;76;763;-64
2021/03/03 12:04:51;;;;;;;;;;;22.60;25.70;;;;;;1531884;76;805;-64
2021/03/03 12:06:53;;;;;;;;;;;22.60;25.60;;;;;;1527855;76;1118;-64
2021/03/03 12:08:55;;;;;;;;;;;22.70;25.70;;;;;;1525048;76;784;-64
2021/03/03 12:10:56;;;;;;;;;;;22.70;25.70;;;;;;1531354;76;768;-65
2021/03/03 12:12:59;;;;;;;;;;;22.60;25.70;;;;;;1528876;76;677;-65